Kimble County Airport
KJCT : now visible

Airfield :











YOU CAN JOIN US ON...

 
LOGIN :

Register | Disclaimer

   EN    FR    IT 

 









Legend :    VFR   Marginal VFR   IFR   Intensive IFR   Very Intensive IFR
Visi :
Ceiling :
>= 8 km
>= 3000ft
5 to 8 km
1000 to 3000 ft
1500m to 5 km
500 to 1000 ft
800 to 1500m
200 to 500 ft
< 800m
< 200 ft
Symbols :   Thunderstorms  Fog  Heavy snow  Heavy precipitations  Wind > 20 kt






- Airport Elevation : 1749 ft


KJCT - Kimble County

CURRENT METAR :
  • 210551Z AUTO 26004KT 7SM CLR 07/06 A3018 RMK AO2 SLP207 T00720061 10089 20072 400890056 58008

EXPIRED METARs :
  • 210506Z AUTO 31003KT 5SM BR SCT002 07/06 A3019 RMK AO2 T00720056
  • 210451Z AUTO 00000KT 1 1/4SM BR SCT001 07/06 A3019 RMK AO2 SLP212 T00720061
  • 210441Z AUTO 00000KT 2 1/2SM BR FEW001 08/06 A3020 RMK AO2 T00780061
  • 210351Z AUTO 00000KT 6SM BR CLR 08/07 A3020 RMK AO2 SLP214 T00780067

TAF KJCT
Valid from the 21 at 06:00 until the 22 at 06:00 UTC


210520Z 2106/2206 VRB03KT 6SM BR OVC100
FM211500 24004KT 5SM -RA BR SCT009 OVC015
FM212300 23003KT P6SM OVC015
KZHU FIR / North America



MET'MAP, your aeronautical weather chart ! - Copyright ORBIFLY December 2007 - Disclaimer

ORBIFLY MET'MAP TEAM :

Programming & Development : Alexandra Zaïnal
Concept & original design : Baudouin d'Aumeries
Assistance for programming : Marc-Olivier Méhu
Technical & hardware support : Manuel Goepfert

Contact : metmap@orbifly.com




SOURCES & CREDITS :

   NOAA       Earth
Advisory